Time,TemperatureF,DewpointF,PressureIn,WindDirection,WindDirectionDegrees,WindSpeedMPH,WindSpeedGustMPH,Humidity,HourlyPrecipIn,Conditions,Clouds,dailyrainin,SoftwareType,DateUTC
2013-10-08 00:01:00,75.4,72.9,29.86,South,187,0.0,3.0,92,0.00,,,0.00,meteohub,2013-10-08 04:01:00,
2013-10-08 00:02:00,75.6,73.0,29.86,SSW,204,0.0,3.0,92,0.00,,,0.00,meteohub,2013-10-08 04:02:00,
2013-10-08 00:07:00,75.6,73.0,29.86,South,190,0.0,4.0,92,0.00,,,0.00,meteohub,2013-10-08 04:07:00,
2013-10-08 00:12:00,75.6,73.0,29.86,SSW,198,0.0,4.0,92,0.00,,,0.00,meteohub,2013-10-08 04:12:00,
2013-10-08 00:17:00,75.6,73.0,29.86,SSW,200,0.0,4.0,92,0.00,,,0.00,meteohub,2013-10-08 04:17:00,
2013-10-08 00:22:00,75.6,73.0,29.86,SSW,198,0.0,4.0,92,0.00,,,0.00,meteohub,2013-10-08 04:22:00,
2013-10-08 00:27:00,75.6,73.0,29.86,SSW,202,0.0,4.0,92,0.00,,,0.00,meteohub,2013-10-08 04:27:00,
2013-10-08 00:32:00,75.6,73.0,29.86,SSW,202,1.0,3.0,92,0.00,,,0.00,meteohub,2013-10-08 04:32:00,
2013-10-08 00:37:00,75.6,73.0,29.86,SSW,199,0.0,3.0,92,0.00,,,0.00,meteohub,2013-10-08 04:37:00,
2013-10-08 00:42:00,75.6,73.0,29.86,SSW,202,0.0,2.0,92,0.00,,,0.00,meteohub,2013-10-08 04:42:00,
2013-10-08 00:47:00,75.6,73.0,29.86,SW,229,0.0,2.0,92,0.00,,,0.00,meteohub,2013-10-08 04:47:00,
2013-10-08 00:52:00,75.6,73.0,29.86,SW,222,1.0,3.0,92,0.00,,,0.00,meteohub,2013-10-08 04:52:00,
2013-10-08 00:57:00,75.7,73.6,29.86,SW,219,0.0,4.0,93,0.00,,,0.00,meteohub,2013-10-08 04:57:00,
2013-10-08 01:02:00,75.6,73.4,29.86,SW,224,1.0,4.0,93,0.00,,,0.00,meteohub,2013-10-08 05:02:00,
2013-10-08 01:07:00,75.7,73.6,29.86,WSW,252,0.0,4.0,93,0.00,,,0.00,meteohub,2013-10-08 05:07:00,
2013-10-08 01:12:00,75.7,73.6,29.86,WSW,248,0.0,4.0,93,0.00,,,0.00,meteohub,2013-10-08 05:12:00,
2013-10-08 01:17:00,75.7,73.6,29.86,SW,219,0.0,4.0,93,0.00,,,0.00,meteohub,2013-10-08 05:17:00,
2013-10-08 01:22:00,75.7,73.6,29.86,SW,219,0.0,4.0,93,0.00,,,0.00,meteohub,2013-10-08 05:22:00,
2013-10-08 01:27:00,75.7,73.6,29.86,SW,232,0.0,5.0,93,0.00,,,0.00,meteohub,2013-10-08 05:27:00,
2013-10-08 01:33:00,75.7,73.6,29.85,SW,217,0.0,5.0,93,0.00,,,0.00,meteohub,2013-10-08 05:33:00,
2013-10-08 01:38:00,75.7,73.6,29.86,WSW,238,0.0,5.0,93,0.00,,,0.00,meteohub,2013-10-08 05:38:00,
2013-10-08 01:43:00,75.7,73.6,29.85,SSW,201,0.0,4.0,93,0.00,,,0.00,meteohub,2013-10-08 05:43:00,
2013-10-08 01:48:00,75.7,73.6,29.85,SW,224,1.0,4.0,93,0.00,,,0.00,meteohub,2013-10-08 05:48:00,
2013-10-08 01:53:00,75.7,73.6,29.86,SW,226,1.0,4.0,93,0.00,,,0.00,meteohub,2013-10-08 05:53:00,
2013-10-08 01:58:00,75.7,73.6,29.86,SW,230,0.0,4.0,93,0.00,,,0.00,meteohub,2013-10-08 05:58:00,
2013-10-08 02:03:00,75.7,73.6,29.85,SW,222,0.0,4.0,93,0.00,,,0.00,meteohub,2013-10-08 06:03:00,
2013-10-08 02:07:00,75.7,73.9,29.85,SW,216,0.0,2.0,94,0.00,,,0.00,meteohub,2013-10-08 06:07:00,
2013-10-08 02:12:00,75.7,73.9,29.86,SW,234,1.0,3.0,94,0.00,,,0.00,meteohub,2013-10-08 06:12:00,
2013-10-08 02:17:00,75.7,73.9,29.86,SSW,193,0.0,3.0,94,0.00,,,0.00,meteohub,2013-10-08 06:17:00,
2013-10-08 02:22:00,75.7,73.9,29.86,SW,229,2.0,3.0,94,0.00,,,0.00,meteohub,2013-10-08 06:22:00,
2013-10-08 02:27:00,75.7,73.9,29.86,SW,225,0.0,3.0,94,0.00,,,0.00,meteohub,2013-10-08 06:27:00,
2013-10-08 02:32:00,75.7,73.9,29.86,SW,225,0.0,2.0,94,0.00,,,0.00,meteohub,2013-10-08 06:32:00,
2013-10-08 02:37:00,75.7,73.9,29.86,SW,225,0.0,2.0,94,0.00,,,0.00,meteohub,2013-10-08 06:37:00,
2013-10-08 02:42:00,75.7,73.9,29.86,SSW,209,0.0,2.0,94,0.00,,,0.00,meteohub,2013-10-08 06:42:00,
2013-10-08 02:47:00,75.7,73.9,29.86,SSW,209,0.0,2.0,94,0.00,,,0.00,meteohub,2013-10-08 06:47:00,
2013-10-08 02:52:00,75.7,73.9,29.86,SSW,207,0.0,2.0,94,0.00,,,0.00,meteohub,2013-10-08 06:52:00,
2013-10-08 02:57:00,75.7,73.9,29.86,SSW,209,3.0,3.0,94,0.00,,,0.00,meteohub,2013-10-08 06:57:00,
2013-10-08 03:02:00,75.7,73.9,29.86,SW,223,0.0,3.0,94,0.00,,,0.00,meteohub,2013-10-08 07:02:00,
2013-10-08 03:07:00,75.7,73.9,29.86,SSW,213,0.0,3.0,94,0.00,,,0.00,meteohub,2013-10-08 07:07:00,
2013-10-08 03:12:00,75.9,74.1,29.86,SSW,207,1.0,3.0,94,0.00,,,0.00,meteohub,2013-10-08 07:12:00,
2013-10-08 03:17:00,75.9,74.1,29.86,SW,217,0.0,3.0,94,0.00,,,0.00,meteohub,2013-10-08 07:17:00,
2013-10-08 03:22:00,75.9,74.3,29.85,SW,217,0.0,2.0,95,0.00,,,0.00,meteohub,2013-10-08 07:22:00,
2013-10-08 03:27:00,75.9,74.3,29.85,SW,217,0.0,2.0,95,0.00,,,0.00,meteohub,2013-10-08 07:27:00,
2013-10-08 03:32:00,75.9,74.3,29.86,SSW,209,0.0,2.0,95,0.00,,,0.00,meteohub,2013-10-08 07:32:00,
2013-10-08 03:37:00,75.7,74.1,29.86,SSW,210,0.0,2.0,95,0.00,,,0.00,meteohub,2013-10-08 07:37:00,
2013-10-08 03:42:00,75.9,74.3,29.86,SW,215,0.0,2.0,95,0.00,,,0.00,meteohub,2013-10-08 07:42:00,
2013-10-08 03:47:00,75.7,74.1,29.86,WSW,245,0.0,2.0,95,0.00,,,0.00,meteohub,2013-10-08 07:47:00,
2013-10-08 03:52:00,75.7,74.1,29.86,WSW,245,0.0,2.0,95,0.00,,,0.00,meteohub,2013-10-08 07:52:00,
2013-10-08 03:57:00,75.7,74.1,29.86,WSW,245,0.0,2.0,95,0.00,,,0.00,meteohub,2013-10-08 07:57:00,
2013-10-08 04:02:00,75.7,74.1,29.85,WSW,245,0.0,2.0,95,0.00,,,0.00,meteohub,2013-10-08 08:02:00,
2013-10-08 04:07:00,75.7,74.1,29.85,WSW,245,0.0,2.0,95,0.00,,,0.00,meteohub,2013-10-08 08:07:00,
2013-10-08 04:12:00,75.7,74.1,29.85,WSW,245,0.0,1.0,95,0.00,,,0.00,meteohub,2013-10-08 08:12:00,
2013-10-08 04:17:00,75.7,74.1,29.85,WSW,245,0.0,2.0,95,0.00,,,0.00,meteohub,2013-10-08 08:17:00,
2013-10-08 04:22:00,75.7,74.5,29.85,SW,222,0.0,3.0,96,0.00,,,0.00,meteohub,2013-10-08 08:22:00,
2013-10-08 04:27:00,75.7,74.5,29.85,SW,221,0.0,3.0,96,0.00,,,0.00,meteohub,2013-10-08 08:27:00,
2013-10-08 04:32:00,75.7,74.5,29.85,SW,221,0.0,3.0,96,0.00,,,0.00,meteohub,2013-10-08 08:32:00,
2013-10-08 04:37:00,75.7,74.5,29.85,SW,227,0.0,2.0,96,0.00,,,0.00,meteohub,2013-10-08 08:37:00,
2013-10-08 04:42:00,75.7,74.5,29.85,SW,227,0.0,2.0,96,0.00,,,0.00,meteohub,2013-10-08 08:42:00,
2013-10-08 04:47:00,75.7,74.5,29.85,SW,229,0.0,2.0,96,0.00,,,0.00,meteohub,2013-10-08 08:47:00,
2013-10-08 04:52:00,75.7,74.5,29.86,SW,229,0.0,2.0,96,0.00,,,0.00,meteohub,2013-10-08 08:52:00,
2013-10-08 04:57:00,75.6,74.3,29.86,SW,229,0.0,2.0,96,0.00,,,0.00,meteohub,2013-10-08 08:57:00,
2013-10-08 05:02:00,75.6,74.3,29.86,SW,229,0.0,1.0,96,0.00,,,0.00,meteohub,2013-10-08 09:02:00,
2013-10-08 05:07:00,75.6,74.3,29.86,SW,229,0.0,1.0,96,0.00,,,0.00,meteohub,2013-10-08 09:07:00,
2013-10-08 05:12:00,75.6,74.3,29.86,SW,229,0.0,1.0,96,0.00,,,0.00,meteohub,2013-10-08 09:12:00,
2013-10-08 05:17:00,75.6,74.3,29.86,SW,229,0.0,1.0,96,0.00,,,0.00,meteohub,2013-10-08 09:17:00,
2013-10-08 05:22:00,75.6,74.3,29.86,SW,229,0.0,1.0,96,0.00,,,0.00,meteohub,2013-10-08 09:22:00,
2013-10-08 05:27:00,75.4,74.1,29.86,SW,229,0.0,0.0,96,0.00,,,0.00,meteohub,2013-10-08 09:27:00,
2013-10-08 05:32:00,75.4,74.1,29.86,SW,229,0.0,0.0,96,0.00,,,0.00,meteohub,2013-10-08 09:32:00,
2013-10-08 05:37:00,75.4,74.1,29.86,SW,229,0.0,0.0,96,0.00,,,0.00,meteohub,2013-10-08 09:37:00,
2013-10-08 05:42:00,75.4,74.1,29.86,SW,229,0.0,1.0,96,0.00,,,0.00,meteohub,2013-10-08 09:42:00,
2013-10-08 05:47:00,75.4,74.1,29.86,SW,229,0.0,1.0,96,0.00,,,0.00,meteohub,2013-10-08 09:47:00,
2013-10-08 05:52:00,75.4,74.1,29.86,SW,229,0.0,1.0,96,0.00,,,0.00,meteohub,2013-10-08 09:52:00,
2013-10-08 05:57:00,75.4,74.1,29.86,SW,229,0.0,1.0,96,0.00,,,0.00,meteohub,2013-10-08 09:57:00,
2013-10-08 06:02:00,75.4,74.1,29.86,SW,229,0.0,1.0,96,0.00,,,0.00,meteohub,2013-10-08 10:02:00,
2013-10-08 06:07:00,75.4,74.5,29.86,SW,229,0.0,1.0,97,0.00,,,0.00,meteohub,2013-10-08 10:07:00,
2013-10-08 06:12:00,75.4,74.5,29.86,SW,229,0.0,1.0,97,0.00,,,0.00,meteohub,2013-10-08 10:12:00,
2013-10-08 06:17:00,75.4,74.5,29.86,SW,229,0.0,2.0,97,0.00,,,0.00,meteohub,2013-10-08 10:17:00,
2013-10-08 06:22:00,75.4,74.5,29.87,SW,230,0.0,2.0,97,0.00,,,0.00,meteohub,2013-10-08 10:22:00,
2013-10-08 06:27:00,75.4,74.5,29.87,SW,232,0.0,2.0,97,0.00,,,0.00,meteohub,2013-10-08 10:27:00,
2013-10-08 06:32:00,75.4,74.1,29.87,SW,235,0.0,2.0,96,0.00,,,0.00,meteohub,2013-10-08 10:32:00,
2013-10-08 06:37:00,75.4,74.1,29.87,SW,235,0.0,2.0,96,0.00,,,0.00,meteohub,2013-10-08 10:37:00,
2013-10-08 06:42:00,75.4,74.5,29.87,SW,235,0.0,2.0,97,0.00,,,0.00,meteohub,2013-10-08 10:42:00,
2013-10-08 06:47:00,75.4,74.5,29.87,SW,235,0.0,1.0,97,0.00,,,0.00,meteohub,2013-10-08 10:47:00,
2013-10-08 06:52:00,75.4,74.5,29.87,SW,235,0.0,1.0,97,0.00,,,0.00,meteohub,2013-10-08 10:52:00,
2013-10-08 06:57:00,75.2,74.3,29.87,SW,235,0.0,1.0,97,0.00,,,0.00,meteohub,2013-10-08 10:57:00,
2013-10-08 07:02:00,75.2,74.3,29.87,SW,235,0.0,0.0,97,0.00,,,0.00,meteohub,2013-10-08 11:02:00,
2013-10-08 07:07:00,75.2,74.3,29.87,SW,235,0.0,0.0,97,0.00,,,0.00,meteohub,2013-10-08 11:07:00,
2013-10-08 07:12:00,75.0,74.1,29.87,SW,235,0.0,0.0,97,0.00,,,0.00,meteohub,2013-10-08 11:12:00,
2013-10-08 07:17:00,75.0,74.1,29.87,SW,235,0.0,0.0,97,0.00,,,0.00,meteohub,2013-10-08 11:17:00,
2013-10-08 07:22:00,75.0,74.1,29.88,SW,234,0.0,0.0,97,0.00,,,0.00,meteohub,2013-10-08 11:22:00,
2013-10-08 07:27:00,75.0,74.1,29.88,SW,234,0.0,0.0,97,0.00,,,0.00,meteohub,2013-10-08 11:27:00,
2013-10-08 07:32:00,75.0,74.1,29.88,SW,234,0.0,0.0,97,0.00,,,0.00,meteohub,2013-10-08 11:32:00,
2013-10-08 07:37:00,75.0,74.1,29.88,SW,234,0.0,1.0,97,0.00,,,0.00,meteohub,2013-10-08 11:37:00,
2013-10-08 07:42:00,75.2,74.3,29.88,SW,234,0.0,1.0,97,0.00,,,0.00,meteohub,2013-10-08 11:42:00,
2013-10-08 07:47:00,75.2,74.3,29.89,SW,234,0.0,1.0,97,0.00,,,0.00,meteohub,2013-10-08 11:47:00,
2013-10-08 07:52:00,75.4,74.5,29.89,SW,234,0.0,1.0,97,0.00,,,0.00,meteohub,2013-10-08 11:52:00,
2013-10-08 07:57:00,75.6,74.7,29.89,West,265,0.0,3.0,97,0.00,,,0.00,meteohub,2013-10-08 11:57:00,
2013-10-08 08:02:00,75.7,74.8,29.89,West,265,0.0,3.0,97,0.00,,,0.00,meteohub,2013-10-08 12:02:00,
2013-10-08 08:07:00,75.7,74.8,29.89,West,265,0.0,3.0,97,0.00,,,0.00,meteohub,2013-10-08 12:07:00,
2013-10-08 08:12:00,75.9,75.0,29.89,West,261,0.0,1.0,97,0.00,,,0.00,meteohub,2013-10-08 12:12:00,
2013-10-08 08:17:00,76.3,75.4,29.89,WSW,253,0.0,1.0,97,0.00,,,0.00,meteohub,2013-10-08 12:17:00,
2013-10-08 08:22:00,76.5,75.6,29.89,WSW,253,0.0,2.0,97,0.00,,,0.00,meteohub,2013-10-08 12:22:00,
2013-10-08 08:27:00,76.6,75.7,29.89,SW,217,3.0,3.0,97,0.01,,,0.01,meteohub,2013-10-08 12:27:00,
2013-10-08 08:32:00,76.8,75.9,29.90,WSW,246,0.0,3.0,97,0.01,,,0.01,meteohub,2013-10-08 12:32:00,
2013-10-08 08:37:00,77.2,76.3,29.90,WSW,245,1.0,3.0,97,0.01,,,0.01,meteohub,2013-10-08 12:37:00,
2013-10-08 08:42:00,77.5,76.3,29.90,West,277,0.0,3.0,96,0.01,,,0.01,meteohub,2013-10-08 12:42:00,
2013-10-08 08:47:00,78.1,76.8,29.90,WSW,243,0.0,3.0,96,0.01,,,0.01,meteohub,2013-10-08 12:47:00,
2013-10-08 08:52:00,78.4,76.8,29.90,WSW,249,0.0,3.0,95,0.01,,,0.01,meteohub,2013-10-08 12:52:00,
2013-10-08 08:57:00,78.8,77.0,29.91,WSW,247,1.0,4.0,94,0.01,,,0.01,meteohub,2013-10-08 12:57:00,
2013-10-08 09:01:00,79.2,77.0,29.90,West,259,0.0,4.0,93,0.01,,,0.01,meteohub,2013-10-08 13:01:00,
2013-10-08 09:06:00,79.5,77.0,29.91,West,269,2.0,4.0,92,0.01,,,0.01,meteohub,2013-10-08 13:06:00,
2013-10-08 09:12:00,79.9,77.0,29.91,West,267,0.0,4.0,91,0.01,,,0.01,meteohub,2013-10-08 13:12:00,
2013-10-08 09:17:00,80.1,76.5,29.91,WNW,283,1.0,5.0,89,0.01,,,0.01,meteohub,2013-10-08 13:17:00,
2013-10-08 09:22:00,80.2,76.1,29.91,WNW,284,5.0,7.0,87,0.01,,,0.01,meteohub,2013-10-08 13:22:00,
2013-10-08 09:27:00,80.4,76.1,29.91,West,281,0.0,7.0,87,0.00,,,0.01,meteohub,2013-10-08 13:27:00,
2013-10-08 09:32:00,81.0,76.5,29.91,SW,220,1.0,7.0,86,0.00,,,0.01,meteohub,2013-10-08 13:32:00,
2013-10-08 09:37:00,81.0,76.5,29.91,West,277,0.0,7.0,86,0.00,,,0.01,meteohub,2013-10-08 13:37:00,
2013-10-08 09:42:00,81.0,76.1,29.91,West,266,4.0,5.0,85,0.00,,,0.01,meteohub,2013-10-08 13:42:00,
2013-10-08 09:47:00,81.1,76.3,29.91,NNW,330,2.0,5.0,85,0.00,,,0.01,meteohub,2013-10-08 13:47:00,
2013-10-08 09:52:00,81.0,76.1,29.91,WNW,287,1.0,4.0,85,0.00,,,0.01,meteohub,2013-10-08 13:52:00,
2013-10-08 09:57:00,81.0,75.7,29.91,WNW,286,0.0,4.0,84,0.00,,,0.01,meteohub,2013-10-08 13:57:00,
2013-10-08 10:02:00,81.0,75.0,29.91,SSW,193,1.0,6.0,82,0.00,,,0.01,meteohub,2013-10-08 14:02:00,
2013-10-08 10:07:00,81.3,75.7,29.91,West,267,0.0,6.0,83,0.00,,,0.01,meteohub,2013-10-08 14:07:00,
2013-10-08 10:12:00,81.9,75.4,29.91,WSW,252,3.0,6.0,81,0.00,,,0.01,meteohub,2013-10-08 14:12:00,
2013-10-08 10:17:00,82.6,76.1,29.92,WNW,284,0.0,6.0,81,0.00,,,0.01,meteohub,2013-10-08 14:17:00,
2013-10-08 10:22:00,83.5,76.6,29.91,NNW,327,1.0,4.0,80,0.00,,,0.01,meteohub,2013-10-08 14:22:00,
2013-10-08 10:27:00,83.7,76.1,29.91,NW,316,0.0,7.0,78,0.00,,,0.01,meteohub,2013-10-08 14:27:00,
2013-10-08 10:32:00,83.1,75.6,29.92,NW,316,0.0,7.0,78,0.00,,,0.01,meteohub,2013-10-08 14:32:00,
2013-10-08 10:37:00,82.9,75.4,29.91,West,274,0.0,7.0,78,0.00,,,0.01,meteohub,2013-10-08 14:37:00,
2013-10-08 10:42:00,83.5,75.6,29.91,WNW,297,5.0,7.0,77,0.00,,,0.01,meteohub,2013-10-08 14:42:00,
2013-10-08 10:47:00,83.5,75.6,29.92,NW,320,0.0,8.0,77,0.00,,,0.01,meteohub,2013-10-08 14:47:00,
2013-10-08 10:52:00,83.7,76.1,29.92,NW,316,2.0,8.0,78,0.00,,,0.01,meteohub,2013-10-08 14:52:00,
2013-10-08 10:57:00,83.7,75.2,29.92,NW,306,0.0,8.0,76,0.00,,,0.01,meteohub,2013-10-08 14:57:00,
2013-10-08 11:02:00,84.7,75.9,29.92,WNW,303,1.0,4.0,75,0.00,,,0.01,meteohub,2013-10-08 15:02:00,
2013-10-08 11:07:00,84.9,75.7,29.92,WNW,301,2.0,6.0,74,0.00,,,0.01,meteohub,2013-10-08 15:07:00,
2013-10-08 11:12:00,84.6,75.0,29.92,NW,304,1.0,7.0,73,0.00,,,0.01,meteohub,2013-10-08 15:12:00,
2013-10-08 11:17:00,84.4,74.8,29.92,WNW,296,0.0,7.0,73,0.00,,,0.01,meteohub,2013-10-08 15:17:00,
2013-10-08 11:22:00,85.1,75.0,29.91,West,265,4.0,7.0,72,0.00,,,0.01,meteohub,2013-10-08 15:22:00,
2013-10-08 11:27:00,85.6,75.2,29.92,West,268,8.0,8.0,71,0.00,,,0.01,meteohub,2013-10-08 15:27:00,
2013-10-08 11:32:00,85.8,74.8,29.91,NW,305,1.0,11.0,70,0.00,,,0.01,meteohub,2013-10-08 15:32:00,
2013-10-08 11:37:00,86.2,75.2,29.91,NW,323,1.0,11.0,70,0.00,,,0.01,meteohub,2013-10-08 15:37:00,
2013-10-08 11:42:00,86.7,75.4,29.91,SW,232,1.0,11.0,69,0.00,,,0.01,meteohub,2013-10-08 15:42:00,
2013-10-08 11:47:00,87.3,75.0,29.91,West,279,4.0,7.0,67,0.00,,,0.01,meteohub,2013-10-08 15:47:00,
2013-10-08 11:52:00,87.1,75.2,29.91,NNW,345,2.0,7.0,68,0.00,,,0.01,meteohub,2013-10-08 15:52:00,
2013-10-08 11:57:00,87.3,75.0,29.91,WNW,289,0.0,7.0,67,0.00,,,0.01,meteohub,2013-10-08 15:57:00,
2013-10-08 12:02:00,87.4,75.6,29.91,WNW,291,1.0,10.0,68,0.00,,,0.01,meteohub,2013-10-08 16:02:00,
2013-10-08 12:07:00,87.1,75.7,29.90,West,269,1.0,10.0,69,0.00,,,0.01,meteohub,2013-10-08 16:07:00,
2013-10-08 12:12:00,86.5,74.7,29.90,NW,324,3.0,10.0,68,0.00,,,0.01,meteohub,2013-10-08 16:12:00,
2013-10-08 12:17:00,86.7,75.4,29.91,NW,309,2.0,8.0,69,0.00,,,0.01,meteohub,2013-10-08 16:17:00,
2013-10-08 12:22:00,86.4,75.4,29.90,NW,306,1.0,7.0,70,0.00,,,0.01,meteohub,2013-10-08 16:22:00,
2013-10-08 12:27:00,86.7,75.4,29.90,NNW,333,1.0,7.0,69,0.00,,,0.01,meteohub,2013-10-08 16:27:00,
2013-10-08 12:32:00,87.1,75.7,29.90,NW,316,1.0,8.0,69,0.00,,,0.01,meteohub,2013-10-08 16:32:00,
2013-10-08 12:37:00,88.0,75.2,29.90,West,268,1.0,8.0,66,0.00,,,0.01,meteohub,2013-10-08 16:37:00,
2013-10-08 12:42:00,88.2,75.4,29.89,NW,318,4.0,8.0,66,0.00,,,0.01,meteohub,2013-10-08 16:42:00,
2013-10-08 12:47:00,87.4,75.6,29.89,NW,305,3.0,8.0,68,0.00,,,0.01,meteohub,2013-10-08 16:47:00,
2013-10-08 12:52:00,87.1,74.8,29.89,West,268,2.0,8.0,67,0.00,,,0.01,meteohub,2013-10-08 16:52:00,
2013-10-08 12:57:00,87.1,74.8,29.89,West,267,3.0,9.0,67,0.00,,,0.01,meteohub,2013-10-08 16:57:00,
2013-10-08 13:02:00,87.6,74.8,29.90,WNW,298,0.0,9.0,66,0.00,,,0.01,meteohub,2013-10-08 17:02:00,
2013-10-08 13:07:00,87.8,75.0,29.89,NW,309,1.0,9.0,66,0.00,,,0.01,meteohub,2013-10-08 17:07:00,
2013-10-08 13:12:00,87.8,75.0,29.89,NNW,327,1.0,8.0,66,0.00,,,0.01,meteohub,2013-10-08 17:12:00,
2013-10-08 13:17:00,87.6,74.8,29.89,NNW,331,3.0,7.0,66,0.00,,,0.01,meteohub,2013-10-08 17:17:00,
2013-10-08 13:22:00,88.0,74.3,29.89,North,355,0.0,7.0,64,0.00,,,0.01,meteohub,2013-10-08 17:22:00,
2013-10-08 13:27:00,88.3,74.7,29.89,WNW,291,5.0,8.0,64,0.00,,,0.01,meteohub,2013-10-08 17:27:00,
2013-10-08 13:32:00,88.2,74.8,29.89,West,264,4.0,8.0,65,0.00,,,0.01,meteohub,2013-10-08 17:32:00,
2013-10-08 13:37:00,88.0,74.7,29.89,NW,313,2.0,8.0,65,0.00,,,0.01,meteohub,2013-10-08 17:37:00,
2013-10-08 13:41:00,88.0,74.7,29.88,NNW,327,0.0,8.0,65,0.00,,,0.01,meteohub,2013-10-08 17:41:00,
2013-10-08 13:46:00,88.3,74.1,29.88,North,0,0.0,8.0,63,0.00,,,0.01,meteohub,2013-10-08 17:46:00,
2013-10-08 13:51:00,88.9,75.2,29.88,WSW,242,4.0,8.0,64,0.00,,,0.01,meteohub,2013-10-08 17:51:00,
2013-10-08 13:57:00,88.9,74.7,29.88,NNW,327,3.0,8.0,63,0.00,,,0.01,meteohub,2013-10-08 17:57:00,
2013-10-08 14:02:00,88.7,74.5,29.88,WNW,290,2.0,8.0,63,0.00,,,0.01,meteohub,2013-10-08 18:02:00,
2013-10-08 14:07:00,89.1,74.3,29.87,West,273,5.0,8.0,62,0.00,,,0.01,meteohub,2013-10-08 18:07:00,
2013-10-08 14:12:00,89.6,74.3,29.87,WNW,300,0.0,7.0,61,0.00,,,0.01,meteohub,2013-10-08 18:12:00,
2013-10-08 14:17:00,90.1,74.3,29.87,NW,311,2.0,7.0,60,0.00,,,0.01,meteohub,2013-10-08 18:17:00,
2013-10-08 14:22:00,91.2,74.8,29.87,West,273,3.0,7.0,59,0.00,,,0.01,meteohub,2013-10-08 18:22:00,
2013-10-08 14:27:00,91.6,74.1,29.86,West,275,5.0,9.0,57,0.00,,,0.01,meteohub,2013-10-08 18:27:00,
2013-10-08 14:32:00,91.8,74.3,29.86,West,277,6.0,9.0,57,0.00,,,0.01,meteohub,2013-10-08 18:32:00,
2013-10-08 14:37:00,91.9,73.9,29.86,WNW,286,0.0,9.0,56,0.00,,,0.01,meteohub,2013-10-08 18:37:00,
2013-10-08 14:42:00,92.7,74.7,29.86,WNW,285,0.0,8.0,56,0.00,,,0.01,meteohub,2013-10-08 18:42:00,
2013-10-08 14:47:00,92.5,73.9,29.86,WSW,246,0.0,9.0,55,0.00,,,0.01,meteohub,2013-10-08 18:47:00,
2013-10-08 14:52:00,91.6,74.1,29.86,NNW,330,0.0,9.0,57,0.00,,,0.01,meteohub,2013-10-08 18:52:00,
2013-10-08 14:57:00,91.2,74.3,29.86,West,281,2.0,9.0,58,0.00,,,0.01,meteohub,2013-10-08 18:57:00,
2013-10-08 15:02:00,91.2,73.8,29.86,West,271,5.0,7.0,57,0.00,,,0.01,meteohub,2013-10-08 19:02:00,
2013-10-08 15:07:00,91.4,73.4,29.86,WNW,301,0.0,6.0,56,0.00,,,0.01,meteohub,2013-10-08 19:07:00,
2013-10-08 15:12:00,91.2,73.8,29.86,North,5,0.0,6.0,57,0.00,,,0.01,meteohub,2013-10-08 19:12:00,
2013-10-08 15:17:00,90.7,73.9,29.86,West,276,1.0,6.0,58,0.00,,,0.01,meteohub,2013-10-08 19:17:00,
2013-10-08 15:22:00,90.3,74.1,29.86,NW,315,0.0,5.0,59,0.00,,,0.01,meteohub,2013-10-08 19:22:00,
2013-10-08 15:27:00,90.5,73.8,29.86,SW,235,1.0,5.0,58,0.00,,,0.01,meteohub,2013-10-08 19:27:00,
2013-10-08 15:32:00,90.9,74.1,29.87,WSW,246,0.0,5.0,58,0.00,,,0.01,meteohub,2013-10-08 19:32:00,
2013-10-08 15:37:00,90.0,77.9,29.87,East,90,5.0,6.0,68,0.00,,,0.01,meteohub,2013-10-08 19:37:00,
2013-10-08 15:42:00,87.4,77.7,29.87,SSW,204,3.0,7.0,73,0.00,,,0.01,meteohub,2013-10-08 19:42:00,
2013-10-08 15:47:00,85.6,77.5,29.87,South,180,0.0,10.0,77,0.00,,,0.01,meteohub,2013-10-08 19:47:00,
2013-10-08 15:52:00,84.6,77.4,29.87,SSE,160,3.0,10.0,79,0.00,,,0.01,meteohub,2013-10-08 19:52:00,
2013-10-08 15:57:00,83.8,77.0,29.87,South,172,1.0,10.0,80,0.00,,,0.01,meteohub,2013-10-08 19:57:00,
2013-10-08 16:02:00,83.7,76.8,29.86,SE,124,0.0,10.0,80,0.00,,,0.01,meteohub,2013-10-08 20:02:00,
2013-10-08 16:07:00,83.7,76.8,29.86,SE,138,2.0,8.0,80,0.00,,,0.01,meteohub,2013-10-08 20:07:00,
2013-10-08 16:12:00,83.8,76.6,29.86,South,190,3.0,7.0,79,0.00,,,0.01,meteohub,2013-10-08 20:12:00,
2013-10-08 16:17:00,83.8,77.0,29.86,SSE,148,2.0,7.0,80,0.00,,,0.01,meteohub,2013-10-08 20:17:00,
2013-10-08 16:22:00,83.8,77.4,29.86,SE,131,1.0,10.0,81,0.00,,,0.01,meteohub,2013-10-08 20:22:00,
2013-10-08 16:27:00,83.8,77.4,29.86,South,174,4.0,10.0,81,0.00,,,0.01,meteohub,2013-10-08 20:27:00,
2013-10-08 16:32:00,83.5,77.0,29.86,South,191,3.0,10.0,81,0.00,,,0.01,meteohub,2013-10-08 20:32:00,
2013-10-08 16:37:00,83.1,76.6,29.86,SSW,211,0.0,9.0,81,0.00,,,0.01,meteohub,2013-10-08 20:37:00,
2013-10-08 16:42:00,83.1,77.0,29.86,South,169,0.0,9.0,82,0.00,,,0.01,meteohub,2013-10-08 20:42:00,
2013-10-08 16:47:00,82.9,76.8,29.86,SSW,202,0.0,8.0,82,0.00,,,0.01,meteohub,2013-10-08 20:47:00,
2013-10-08 16:52:00,82.6,76.8,29.87,South,173,0.0,8.0,83,0.00,,,0.01,meteohub,2013-10-08 20:52:00,
2013-10-08 16:57:00,82.2,76.8,29.87,SSW,198,2.0,8.0,84,0.00,,,0.01,meteohub,2013-10-08 20:57:00,
2013-10-08 17:02:00,82.0,77.0,29.87,SSW,205,2.0,8.0,85,0.01,,,0.02,meteohub,2013-10-08 21:02:00,
2013-10-08 17:07:00,82.0,77.4,29.87,ENE,68,0.0,6.0,86,0.01,,,0.02,meteohub,2013-10-08 21:07:00,
2013-10-08 17:12:00,82.0,77.7,29.87,ESE,116,4.0,6.0,87,0.01,,,0.02,meteohub,2013-10-08 21:12:00,
2013-10-08 17:17:00,82.0,77.0,29.87,SE,140,3.0,6.0,85,0.01,,,0.02,meteohub,2013-10-08 21:17:00,
2013-10-08 17:22:00,82.0,77.4,29.86,ESE,121,0.0,5.0,86,0.01,,,0.02,meteohub,2013-10-08 21:22:00,
2013-10-08 17:27:00,82.4,77.4,29.86,SSE,159,0.0,5.0,85,0.01,,,0.02,meteohub,2013-10-08 21:27:00,
2013-10-08 17:32:00,82.6,77.5,29.86,South,173,0.0,5.0,85,0.01,,,0.02,meteohub,2013-10-08 21:32:00,
2013-10-08 17:37:00,82.6,77.2,29.86,South,183,0.0,3.0,84,0.01,,,0.02,meteohub,2013-10-08 21:37:00,
2013-10-08 17:42:00,82.8,77.0,29.86,SSE,165,0.0,4.0,83,0.01,,,0.02,meteohub,2013-10-08 21:42:00,
2013-10-08 17:47:00,82.8,77.0,29.86,SW,219,0.0,4.0,83,0.01,,,0.02,meteohub,2013-10-08 21:47:00,
2013-10-08 17:52:00,82.8,77.4,29.86,SE,142,1.0,4.0,84,0.01,,,0.02,meteohub,2013-10-08 21:52:00,
2013-10-08 17:57:00,83.1,77.7,29.86,SE,130,0.0,3.0,84,0.01,,,0.02,meteohub,2013-10-08 21:57:00,
2013-10-08 18:02:00,83.5,77.7,29.86,SSE,155,0.0,3.0,83,0.00,,,0.02,meteohub,2013-10-08 22:02:00,
2013-10-08 18:07:00,83.5,77.7,29.86,South,170,2.0,5.0,83,0.00,,,0.02,meteohub,2013-10-08 22:07:00,
2013-10-08 18:12:00,83.3,77.2,29.86,SE,139,0.0,5.0,82,0.00,,,0.02,meteohub,2013-10-08 22:12:00,
2013-10-08 18:17:00,83.1,77.4,29.87,South,180,2.0,5.0,83,0.00,,,0.02,meteohub,2013-10-08 22:17:00,
2013-10-08 18:22:00,82.9,77.2,29.87,SSE,153,0.0,4.0,83,0.00,,,0.02,meteohub,2013-10-08 22:22:00,
2013-10-08 18:27:00,82.9,77.2,29.87,South,169,0.0,5.0,83,0.00,,,0.02,meteohub,2013-10-08 22:27:00,
2013-10-08 18:32:00,82.9,76.8,29.87,SE,126,0.0,5.0,82,0.00,,,0.02,meteohub,2013-10-08 22:32:00,
2013-10-08 18:37:00,82.9,76.8,29.87,ESE,120,0.0,5.0,82,0.00,,,0.02,meteohub,2013-10-08 22:37:00,
2013-10-08 18:42:00,82.8,76.6,29.88,SE,140,0.0,3.0,82,0.00,,,0.02,meteohub,2013-10-08 22:42:00,
2013-10-08 18:47:00,82.8,76.6,29.87,SE,140,0.0,2.0,82,0.00,,,0.02,meteohub,2013-10-08 22:47:00,
2013-10-08 18:52:00,82.8,76.3,29.87,SE,140,0.0,2.0,81,0.00,,,0.02,meteohub,2013-10-08 22:52:00,
2013-10-08 18:57:00,82.6,76.5,29.87,SE,140,0.0,0.0,82,0.00,,,0.02,meteohub,2013-10-08 22:57:00,
2013-10-08 19:02:00,82.6,76.5,29.88,SE,140,0.0,0.0,82,0.00,,,0.02,meteohub,2013-10-08 23:02:00,
2013-10-08 19:07:00,82.2,76.1,29.88,SE,140,0.0,0.0,82,0.00,,,0.02,meteohub,2013-10-08 23:07:00,
2013-10-08 19:12:00,81.9,76.1,29.88,SE,140,0.0,0.0,83,0.00,,,0.02,meteohub,2013-10-08 23:12:00,
2013-10-08 19:17:00,81.7,75.9,29.88,SE,140,0.0,0.0,83,0.00,,,0.02,meteohub,2013-10-08 23:17:00,
2013-10-08 19:22:00,81.3,75.7,29.88,SE,140,0.0,0.0,83,0.00,,,0.02,meteohub,2013-10-08 23:22:00,
2013-10-08 19:27:00,81.0,73.8,29.88,SE,140,0.0,0.0,79,0.00,,,0.02,meteohub,2013-10-08 23:27:00,
2013-10-08 19:32:00,81.0,73.8,29.88,SE,140,0.0,0.0,79,0.00,,,0.02,meteohub,2013-10-08 23:32:00,
2013-10-08 19:37:00,81.0,73.4,29.88,SE,140,0.0,0.0,78,0.00,,,0.02,meteohub,2013-10-08 23:37:00,
2013-10-08 19:42:00,81.0,73.0,29.88,SE,140,0.0,1.0,77,0.00,,,0.02,meteohub,2013-10-08 23:42:00,
2013-10-08 19:47:00,81.0,72.7,29.88,SSW,197,0.0,1.0,76,0.00,,,0.02,meteohub,2013-10-08 23:47:00,
2013-10-08 19:52:00,81.0,72.7,29.88,SSW,201,0.0,1.0,76,0.00,,,0.02,meteohub,2013-10-08 23:52:00,
2013-10-08 19:57:00,81.0,72.3,29.89,SW,232,0.0,1.0,75,0.00,,,0.02,meteohub,2013-10-08 23:57:00,
2013-10-08 20:02:00,81.1,72.5,29.89,SW,232,0.0,1.0,75,0.00,,,0.02,meteohub,2013-10-09 00:02:00,
2013-10-08 20:07:00,81.0,72.3,29.89,West,263,0.0,1.0,75,0.00,,,0.00,meteohub,2013-10-09 00:07:00,
2013-10-08 20:12:00,81.0,72.3,29.90,West,263,0.0,1.0,75,0.00,,,0.00,meteohub,2013-10-09 00:12:00,
2013-10-08 20:17:00,81.0,72.3,29.90,West,263,0.0,1.0,75,0.00,,,0.00,meteohub,2013-10-09 00:17:00,
2013-10-08 20:22:00,81.0,72.3,29.90,West,263,0.0,1.0,75,0.00,,,0.00,meteohub,2013-10-09 00:22:00,
2013-10-08 20:27:00,80.8,72.1,29.90,West,263,0.0,1.0,75,0.00,,,0.00,meteohub,2013-10-09 00:27:00,
2013-10-08 20:32:00,80.8,72.1,29.90,West,264,0.0,4.0,75,0.00,,,0.00,meteohub,2013-10-09 00:32:00,
2013-10-08 20:37:00,81.0,72.3,29.90,WSW,247,0.0,4.0,75,0.00,,,0.00,meteohub,2013-10-09 00:37:00,
2013-10-08 20:42:00,81.0,72.0,29.90,West,270,0.0,4.0,74,0.00,,,0.00,meteohub,2013-10-09 00:42:00,
2013-10-08 20:47:00,81.0,72.0,29.90,WNW,300,0.0,3.0,74,0.00,,,0.00,meteohub,2013-10-09 00:47:00,
2013-10-08 20:52:00,81.0,72.0,29.91,WNW,282,3.0,3.0,74,0.00,,,0.00,meteohub,2013-10-09 00:52:00,
2013-10-08 20:57:00,81.0,72.0,29.91,NW,315,0.0,4.0,74,0.00,,,0.00,meteohub,2013-10-09 00:57:00,
2013-10-08 21:02:00,81.0,72.0,29.91,NW,319,0.0,4.0,74,0.00,,,0.00,meteohub,2013-10-09 01:02:00,
2013-10-08 21:07:00,81.0,72.0,29.91,WNW,297,0.0,4.0,74,0.00,,,0.00,meteohub,2013-10-09 01:07:00,
2013-10-08 21:12:00,81.0,72.0,29.91,WNW,294,0.0,3.0,74,0.00,,,0.00,meteohub,2013-10-09 01:12:00,
2013-10-08 21:17:00,80.8,71.8,29.91,West,265,0.0,4.0,74,0.00,,,0.00,meteohub,2013-10-09 01:17:00,
2013-10-08 21:22:00,80.6,72.0,29.91,NNE,17,1.0,4.0,75,0.00,,,0.00,meteohub,2013-10-09 01:22:00,
2013-10-08 21:27:00,80.4,71.8,29.91,WNW,286,0.0,5.0,75,0.00,,,0.00,meteohub,2013-10-09 01:27:00,
2013-10-08 21:32:00,80.4,71.8,29.91,NW,309,0.0,5.0,75,0.00,,,0.00,meteohub,2013-10-09 01:32:00,
2013-10-08 21:37:00,80.2,71.6,29.91,WNW,292,0.0,5.0,75,0.00,,,0.00,meteohub,2013-10-09 01:37:00,
2013-10-08 21:42:00,80.1,71.4,29.91,West,273,3.0,5.0,75,0.00,,,0.00,meteohub,2013-10-09 01:42:00,
2013-10-08 21:47:00,79.9,71.2,29.91,WSW,258,3.0,5.0,75,0.00,,,0.00,meteohub,2013-10-09 01:47:00,
2013-10-08 21:52:00,79.7,70.7,29.92,North,350,0.0,7.0,74,0.00,,,0.00,meteohub,2013-10-09 01:52:00,
2013-10-08 21:57:00,79.5,70.9,29.92,WNW,300,1.0,7.0,75,0.00,,,0.00,meteohub,2013-10-09 01:57:00,
2013-10-08 22:02:00,79.3,70.7,29.92,WNW,294,0.0,7.0,75,0.00,,,0.00,meteohub,2013-10-09 02:02:00,
2013-10-08 22:07:00,79.3,70.7,29.92,NW,311,0.0,4.0,75,0.00,,,0.00,meteohub,2013-10-09 02:07:00,
2013-10-08 22:12:00,79.2,70.9,29.92,NW,311,0.0,2.0,76,0.00,,,0.00,meteohub,2013-10-09 02:12:00,
2013-10-08 22:17:00,79.0,70.7,29.93,North,355,0.0,2.0,76,0.00,,,0.00,meteohub,2013-10-09 02:17:00,
2013-10-08 22:22:00,78.6,70.3,29.93,NW,310,0.0,2.0,76,0.00,,,0.00,meteohub,2013-10-09 02:22:00,
2013-10-08 22:27:00,78.4,70.2,29.93,West,279,0.0,3.0,76,0.00,,,0.00,meteohub,2013-10-09 02:27:00,
2013-10-08 22:32:00,78.3,70.0,29.93,WNW,288,1.0,3.0,76,0.00,,,0.00,meteohub,2013-10-09 02:32:00,
2013-10-08 22:37:00,78.4,70.7,29.93,West,269,5.0,5.0,77,0.00,,,0.00,meteohub,2013-10-09 02:37:00,
2013-10-08 22:42:00,78.4,70.7,29.93,WNW,287,0.0,7.0,77,0.00,,,0.00,meteohub,2013-10-09 02:42:00,
2013-10-08 22:47:00,78.3,70.5,29.93,WNW,301,0.0,7.0,77,0.00,,,0.00,meteohub,2013-10-09 02:47:00,
2013-10-08 22:52:00,78.1,70.3,29.93,NW,315,0.0,7.0,77,0.00,,,0.00,meteohub,2013-10-09 02:52:00,
2013-10-08 22:57:00,77.9,70.5,29.94,NW,305,0.0,5.0,78,0.00,,,0.00,meteohub,2013-10-09 02:57:00,
2013-10-08 23:02:00,77.7,70.3,29.93,NW,311,0.0,4.0,78,0.00,,,0.00,meteohub,2013-10-09 03:02:00,
2013-10-08 23:07:00,77.5,70.5,29.93,WNW,294,0.0,4.0,79,0.00,,,0.00,meteohub,2013-10-09 03:07:00,
2013-10-08 23:12:00,77.4,70.3,29.94,WNW,289,0.0,5.0,79,0.00,,,0.00,meteohub,2013-10-09 03:12:00,
2013-10-08 23:17:00,77.4,70.7,29.93,WNW,283,0.0,5.0,80,0.00,,,0.00,meteohub,2013-10-09 03:17:00,
2013-10-08 23:22:00,77.2,70.5,29.93,NW,311,0.0,5.0,80,0.00,,,0.00,meteohub,2013-10-09 03:22:00,
2013-10-08 23:27:00,77.2,70.5,29.93,West,261,1.0,4.0,80,0.00,,,0.00,meteohub,2013-10-09 03:27:00,
2013-10-08 23:32:00,77.0,70.3,29.93,WNW,292,0.0,4.0,80,0.00,,,0.00,meteohub,2013-10-09 03:32:00,
2013-10-08 23:37:00,76.8,70.5,29.93,WNW,287,0.0,4.0,81,0.00,,,0.00,meteohub,2013-10-09 03:37:00,
2013-10-08 23:42:00,76.6,70.3,29.93,WNW,296,0.0,3.0,81,0.00,,,0.00,meteohub,2013-10-09 03:42:00,
2013-10-08 23:47:00,76.6,70.3,29.93,WNW,291,0.0,2.0,81,0.00,,,0.00,meteohub,2013-10-09 03:47:00,
2013-10-08 23:52:00,76.5,70.5,29.93,West,281,1.0,2.0,82,0.00,,,0.00,meteohub,2013-10-09 03:52:00,
2013-10-08 23:57:00,76.3,70.3,29.93,West,266,1.0,3.0,82,0.00,,,0.00,meteohub,2013-10-09 03:57:00,